createdAt,value
2022-12-31T00:01:33.815Z,8.10
2022-12-31T00:04:02.456Z,9.30
2022-12-31T00:06:33.135Z,8.80
2022-12-31T00:09:04.822Z,8.40
2022-12-31T00:11:35.687Z,7.50
2022-12-31T00:14:04.144Z,8.90
2022-12-31T00:16:37.268Z,7.50
2022-12-31T00:19:08.117Z,8.30
2022-12-31T00:21:36.821Z,7.80
2022-12-31T00:24:06.515Z,8.40
2022-12-31T00:26:36.561Z,8.70
2022-12-31T00:29:05.883Z,8.30
2022-12-31T00:31:37.940Z,8.60
2022-12-31T00:34:06.717Z,7.70
2022-12-31T00:36:37.722Z,8.60
2022-12-31T00:39:08.512Z,7.60
2022-12-31T00:41:37.649Z,8.80
2022-12-31T00:44:06.201Z,8.10
2022-12-31T00:49:03.119Z,8.80
2022-12-31T00:51:31.600Z,9.10
2022-12-31T00:54:00.417Z,8.80
2022-12-31T00:56:30.615Z,9.40
2022-12-31T00:59:00.435Z,9.30
2022-12-31T01:01:31.876Z,9.80
2022-12-31T01:04:03.929Z,10.00
2022-12-31T01:06:32.620Z,9.70
2022-12-31T01:09:01.091Z,9.30
2022-12-31T01:11:29.688Z,9.30
2022-12-31T01:14:05.011Z,9.70
2022-12-31T01:16:51.022Z,10.30
2022-12-31T01:19:26.542Z,9.90
2022-12-31T01:21:56.068Z,10.20
2022-12-31T01:24:24.553Z,10.60
2022-12-31T01:26:53.316Z,10.40
2022-12-31T01:29:21.791Z,10.30
2022-12-31T01:31:50.266Z,9.70
2022-12-31T01:34:19.082Z,9.30
2022-12-31T01:36:47.551Z,10.60
2022-12-31T01:39:15.943Z,10.30
2022-12-31T01:41:46.459Z,11.00
2022-12-31T01:44:23.632Z,10.90
2022-12-31T01:46:56.543Z,10.30
2022-12-31T01:49:28.436Z,10.30
2022-12-31T01:52:08.303Z,10.50
2022-12-31T01:54:42.447Z,9.80
2022-12-31T01:57:12.333Z,10.10
2022-12-31T01:59:41.511Z,10.60
2022-12-31T02:02:10.480Z,10.90
2022-12-31T02:04:39.487Z,10.30
2022-12-31T02:07:09.565Z,9.80
2022-12-31T02:09:40.289Z,10.70
2022-12-31T02:12:10.213Z,10.10
2022-12-31T02:14:44.854Z,10.90
2022-12-31T02:17:35.407Z,9.70
2022-12-31T02:20:15.584Z,10.40
2022-12-31T02:23:05.586Z,10.80
2022-12-31T02:25:51.918Z,11.40
2022-12-31T02:31:34.932Z,11.40
2022-12-31T02:34:08.654Z,11.50
2022-12-31T02:36:40.915Z,10.80
2022-12-31T02:39:11.933Z,11.90
2022-12-31T02:41:52.610Z,10.70
2022-12-31T02:44:29.709Z,10.00
2022-12-31T02:47:07.402Z,11.60
2022-12-31T02:49:42.708Z,9.50
2022-12-31T02:52:22.904Z,10.90
2022-12-31T02:55:02.036Z,11.50
2022-12-31T02:57:40.688Z,11.70
2022-12-31T03:00:31.575Z,11.50
2022-12-31T03:03:02.099Z,11.00
2022-12-31T03:05:34.852Z,10.30
2022-12-31T03:08:03.334Z,11.80
2022-12-31T03:10:31.719Z,11.70
2022-12-31T03:13:01.131Z,11.20
2022-12-31T03:15:34.139Z,10.60
2022-12-31T03:18:05.659Z,11.20
2022-12-31T03:20:58.704Z,11.20
2022-12-31T03:23:33.624Z,10.70
2022-12-31T03:26:04.155Z,11.80
2022-12-31T03:28:32.364Z,11.30
2022-12-31T03:31:03.053Z,11.60
2022-12-31T03:36:11.023Z,10.30
2022-12-31T03:38:40.042Z,11.30
2022-12-31T03:41:11.165Z,11.50
2022-12-31T03:43:39.413Z,11.70
2022-12-31T03:46:07.650Z,11.00
2022-12-31T03:48:35.871Z,11.50
2022-12-31T03:51:06.403Z,11.60
2022-12-31T03:53:35.784Z,11.00
2022-12-31T03:56:04.157Z,11.00
2022-12-31T03:58:32.434Z,11.10
2022-12-31T04:01:00.760Z,10.90
2022-12-31T04:03:29.026Z,11.10
2022-12-31T04:05:57.178Z,11.60
2022-12-31T04:08:25.566Z,10.60
2022-12-31T04:10:53.795Z,11.40
2022-12-31T04:13:21.927Z,10.80
2022-12-31T04:15:52.039Z,10.70
2022-12-31T04:18:20.445Z,11.20
2022-12-31T04:20:48.766Z,10.90
2022-12-31T04:23:17.015Z,11.90
2022-12-31T04:25:45.143Z,10.90
2022-12-31T04:28:13.333Z,11.10
2022-12-31T04:30:41.651Z,10.40
2022-12-31T04:33:09.797Z,10.80
2022-12-31T04:35:37.947Z,10.40
2022-12-31T04:38:06.718Z,10.70
2022-12-31T04:40:34.825Z,11.10
2022-12-31T04:43:02.991Z,11.20
2022-12-31T04:45:31.333Z,10.30
2022-12-31T04:47:59.604Z,10.10
2022-12-31T04:50:28.386Z,10.90
2022-12-31T04:52:56.534Z,10.70
2022-12-31T04:55:24.770Z,9.50
2022-12-31T04:57:52.907Z,10.30
2022-12-31T05:00:21.118Z,10.90
2022-12-31T05:02:49.468Z,10.70
2022-12-31T05:05:17.695Z,11.10
2022-12-31T05:07:45.833Z,10.40
2022-12-31T05:10:14.621Z,11.80
2022-12-31T05:12:42.698Z,10.70
2022-12-31T05:15:11.491Z,11.30
2022-12-31T05:17:39.730Z,11.80
2022-12-31T05:20:08.310Z,10.60
2022-12-31T05:22:36.422Z,11.50
2022-12-31T05:25:04.999Z,11.80
2022-12-31T05:27:34.046Z,11.30
2022-12-31T05:30:02.250Z,10.80
2022-12-31T05:32:30.536Z,11.40
2022-12-31T05:34:59.872Z,11.20
2022-12-31T05:37:29.839Z,11.40
2022-12-31T05:39:58.369Z,11.30
2022-12-31T05:42:26.618Z,10.40
2022-12-31T05:44:55.455Z,11.40
2022-12-31T05:47:23.939Z,11.20
2022-12-31T05:49:52.378Z,11.60
2022-12-31T05:52:21.370Z,11.90
2022-12-31T05:54:49.586Z,11.10
2022-12-31T05:57:17.755Z,11.00
2022-12-31T05:59:45.920Z,11.10
2022-12-31T06:02:14.252Z,10.90
2022-12-31T06:04:42.482Z,11.00
2022-12-31T06:07:10.760Z,11.20
2022-12-31T06:09:39.029Z,10.30
2022-12-31T06:12:07.939Z,11.30
2022-12-31T06:14:39.555Z,11.40
2022-12-31T06:17:10.698Z,10.80
2022-12-31T06:19:39.156Z,10.20
2022-12-31T06:22:07.409Z,10.00
2022-12-31T06:24:35.556Z,10.30
2022-12-31T06:27:03.890Z,9.80
2022-12-31T06:29:32.047Z,10.50
2022-12-31T06:32:00.219Z,9.80
2022-12-31T06:34:28.475Z,10.40
2022-12-31T06:36:56.606Z,10.00
2022-12-31T06:39:25.073Z,11.30
2022-12-31T06:41:53.513Z,10.80
2022-12-31T06:44:22.757Z,10.60
2022-12-31T06:46:51.088Z,10.00
2022-12-31T06:49:19.346Z,11.50
2022-12-31T06:51:47.935Z,9.40
2022-12-31T06:54:16.277Z,9.60
2022-12-31T06:56:44.704Z,9.90
2022-12-31T06:59:24.232Z,9.90
2022-12-31T07:02:05.614Z,10.20
2022-12-31T07:05:06.715Z,9.50
2022-12-31T07:07:38.411Z,10.60
2022-12-31T07:10:44.746Z,9.50
2022-12-31T07:13:34.659Z,8.30
2022-12-31T07:16:20.838Z,10.20
2022-12-31T07:19:03.001Z,9.90
2022-12-31T07:21:36.122Z,10.20
2022-12-31T07:24:07.202Z,10.00
2022-12-31T07:27:15.658Z,9.40
2022-12-31T07:30:01.888Z,10.10
2022-12-31T07:32:39.079Z,9.10
2022-12-31T07:35:23.946Z,10.30
2022-12-31T07:38:00.558Z,9.30
2022-12-31T07:40:35.659Z,9.40
2022-12-31T07:43:26.150Z,9.80
2022-12-31T07:46:26.377Z,9.20
2022-12-31T07:48:54.757Z,8.30
2022-12-31T07:51:23.138Z,8.90
2022-12-31T07:53:51.453Z,8.10
2022-12-31T07:56:19.630Z,8.30
2022-12-31T07:59:12.815Z,7.20
2022-12-31T08:02:19.102Z,8.20
2022-12-31T08:04:53.173Z,8.10
2022-12-31T08:07:25.693Z,9.30
2022-12-31T08:10:34.437Z,8.90
2022-12-31T08:13:05.849Z,8.50
2022-12-31T08:15:38.249Z,7.60
2022-12-31T08:18:08.324Z,8.10
2022-12-31T08:20:52.288Z,8.60
2022-12-31T08:23:28.644Z,7.70
2022-12-31T08:26:06.266Z,8.50
2022-12-31T08:28:55.077Z,9.10
2022-12-31T08:31:49.853Z,7.80
2022-12-31T08:34:39.785Z,6.80
2022-12-31T08:37:13.830Z,6.90
2022-12-31T08:39:48.570Z,6.20
2022-12-31T08:42:31.798Z,8.40
2022-12-31T08:45:25.979Z,8.50
2022-12-31T08:48:07.139Z,10.10
2022-12-31T08:50:35.841Z,9.00
2022-12-31T08:53:05.353Z,10.40
2022-12-31T08:55:34.005Z,10.20
2022-12-31T08:58:08.704Z,10.00
2022-12-31T09:00:38.867Z,9.40
2022-12-31T09:03:25.599Z,9.10
2022-12-31T09:06:06.628Z,9.20
2022-12-31T09:09:23.112Z,9.00
2022-12-31T09:12:06.974Z,8.00
2022-12-31T09:14:47.614Z,9.30
2022-12-31T09:17:39.759Z,8.50
2022-12-31T09:20:15.351Z,9.60
2022-12-31T09:22:43.901Z,10.00
2022-12-31T09:25:17.854Z,10.40
2022-12-31T09:27:58.372Z,11.30
2022-12-31T09:30:29.510Z,10.40
2022-12-31T09:33:32.884Z,10.40
2022-12-31T09:36:30.984Z,10.00
2022-12-31T09:39:26.160Z,10.00
2022-12-31T09:42:19.000Z,9.50
2022-12-31T09:45:06.034Z,9.00
2022-12-31T09:48:08.788Z,9.20
2022-12-31T09:51:06.306Z,11.30
2022-12-31T09:54:13.060Z,12.60
2022-12-31T09:57:10.720Z,11.20
2022-12-31T09:59:50.023Z,11.90
2022-12-31T10:02:27.639Z,11.60
2022-12-31T10:05:15.090Z,12.10
2022-12-31T10:08:08.315Z,10.60
2022-12-31T10:11:03.356Z,10.10
2022-12-31T10:13:40.990Z,9.70
2022-12-31T10:16:36.180Z,9.90
2022-12-31T10:19:13.211Z,9.70
2022-12-31T10:21:44.193Z,10.00
2022-12-31T10:24:20.520Z,8.70
2022-12-31T10:27:14.349Z,8.90
2022-12-31T10:30:13.513Z,9.40
2022-12-31T10:33:05.096Z,9.40
2022-12-31T10:35:59.705Z,10.10
2022-12-31T10:38:51.340Z,10.50
2022-12-31T10:41:34.896Z,10.40
2022-12-31T10:44:40.466Z,11.20
2022-12-31T10:47:36.880Z,10.60
2022-12-31T10:53:33.571Z,9.90
2022-12-31T10:56:35.874Z,10.90
2022-12-31T10:59:28.861Z,10.00
2022-12-31T11:02:38.413Z,9.40
2022-12-31T11:05:29.900Z,8.30
2022-12-31T11:08:40.202Z,9.60
2022-12-31T11:11:28.637Z,7.10
2022-12-31T11:14:21.505Z,9.30
2022-12-31T11:17:16.466Z,10.20
2022-12-31T11:20:03.895Z,9.00
2022-12-31T11:22:56.220Z,8.60
2022-12-31T11:25:40.335Z,9.60
2022-12-31T11:28:35.901Z,10.50
2022-12-31T11:31:42.408Z,10.40
2022-12-31T11:34:43.265Z,9.20
2022-12-31T11:37:35.263Z,11.10
2022-12-31T11:40:12.310Z,10.00
2022-12-31T11:42:59.392Z,10.40
2022-12-31T11:46:01.941Z,11.00
2022-12-31T11:48:48.639Z,10.60
2022-12-31T11:51:26.023Z,10.30
2022-12-31T11:54:12.700Z,9.80
2022-12-31T11:56:44.361Z,9.70
2022-12-31T11:59:19.270Z,11.10
2022-12-31T12:02:13.857Z,11.70
2022-12-31T12:04:43.192Z,12.20
2022-12-31T12:07:15.803Z,10.60
2022-12-31T12:09:45.623Z,10.90
2022-12-31T12:12:14.249Z,10.20
2022-12-31T12:14:47.072Z,10.00
2022-12-31T12:17:22.196Z,10.40
2022-12-31T12:19:55.137Z,10.50
2022-12-31T12:22:27.468Z,9.90
2022-12-31T12:25:02.053Z,11.20
2022-12-31T12:27:32.568Z,11.50
2022-12-31T12:30:20.225Z,12.20
2022-12-31T12:33:04.809Z,13.10
2022-12-31T12:35:35.243Z,11.30
2022-12-31T12:38:13.843Z,13.50
2022-12-31T12:40:42.382Z,12.40
2022-12-31T12:43:32.640Z,12.30
2022-12-31T12:46:31.574Z,13.50
2022-12-31T12:49:00.487Z,11.70
2022-12-31T12:52:16.038Z,12.90
2022-12-31T12:55:12.308Z,12.20
2022-12-31T12:58:06.254Z,13.90
2022-12-31T13:00:40.879Z,12.60
2022-12-31T13:03:26.554Z,14.10
2022-12-31T13:06:09.936Z,12.90
2022-12-31T13:08:41.030Z,14.20
2022-12-31T13:11:26.506Z,15.70
2022-12-31T13:14:17.212Z,14.90
2022-12-31T13:17:04.337Z,14.50
2022-12-31T13:20:09.921Z,14.00
2022-12-31T13:22:40.569Z,14.10
2022-12-31T13:25:18.156Z,12.70
2022-12-31T13:27:51.739Z,16.50
2022-12-31T13:30:25.441Z,16.40
2022-12-31T13:38:06.068Z,13.50
2022-12-31T13:40:55.623Z,11.80
2022-12-31T13:44:00.929Z,15.40
2022-12-31T13:46:48.576Z,13.80
2022-12-31T13:49:34.344Z,16.20
2022-12-31T13:52:18.430Z,12.90
2022-12-31T13:57:48.403Z,11.90
2022-12-31T14:00:30.545Z,13.50
2022-12-31T14:03:14.348Z,12.80
2022-12-31T14:06:01.327Z,13.20
2022-12-31T14:08:29.950Z,14.00
2022-12-31T14:11:14.369Z,12.10
2022-12-31T14:14:26.041Z,10.80
2022-12-31T14:17:17.802Z,10.20
2022-12-31T14:20:01.202Z,11.50
2022-12-31T14:22:52.229Z,11.60
2022-12-31T14:25:34.348Z,10.50
2022-12-31T14:28:07.205Z,11.20
2022-12-31T14:30:39.019Z,11.70
2022-12-31T14:33:38.930Z,12.30
2022-12-31T14:36:25.983Z,12.30
2022-12-31T14:39:06.654Z,11.50
2022-12-31T14:41:52.379Z,13.20
2022-12-31T14:44:26.443Z,11.10
2022-12-31T14:47:15.883Z,11.60
2022-12-31T14:49:47.213Z,12.90
2022-12-31T14:52:32.172Z,10.70
2022-12-31T14:55:22.169Z,11.60
2022-12-31T15:00:52.614Z,10.00
2022-12-31T15:03:44.724Z,10.10
2022-12-31T15:06:19.838Z,9.60
2022-12-31T15:09:15.915Z,9.40
2022-12-31T15:11:56.018Z,9.50
2022-12-31T15:14:37.471Z,10.40
2022-12-31T15:17:51.034Z,10.10
2022-12-31T15:20:38.064Z,12.20
2022-12-31T15:23:19.685Z,16.10
2022-12-31T15:25:51.927Z,12.20
2022-12-31T15:28:36.467Z,11.10
2022-12-31T15:31:18.807Z,12.20
2022-12-31T15:34:01.754Z,15.30
2022-12-31T15:36:32.948Z,15.60
2022-12-31T15:39:12.894Z,12.10
2022-12-31T15:42:27.279Z,13.50
2022-12-31T15:44:49.763Z,13.60
2022-12-31T15:47:35.615Z,10.60
2022-12-31T15:50:13.696Z,12.50
2022-12-31T15:52:46.743Z,13.20
2022-12-31T15:55:25.364Z,12.40
2022-12-31T15:57:58.640Z,13.30
2022-12-31T16:00:38.453Z,10.30
2022-12-31T16:03:21.602Z,12.00
2022-12-31T16:05:51.631Z,9.50
2022-12-31T16:08:22.894Z,9.80
2022-12-31T16:10:54.370Z,9.10
2022-12-31T16:13:25.491Z,11.60
2022-12-31T16:16:00.599Z,9.70
2022-12-31T16:18:44.254Z,9.30
2022-12-31T16:21:33.015Z,9.70
2022-12-31T16:24:21.924Z,11.40
2022-12-31T16:26:53.528Z,10.70
2022-12-31T16:29:24.363Z,11.30
2022-12-31T16:31:54.045Z,12.00
2022-12-31T16:34:25.367Z,10.90
2022-12-31T16:37:02.715Z,14.10
2022-12-31T16:39:36.099Z,14.20
2022-12-31T16:42:21.534Z,15.20
2022-12-31T16:44:55.752Z,13.40
2022-12-31T16:47:33.872Z,12.50
2022-12-31T16:50:13.561Z,10.70
2022-12-31T16:52:45.035Z,13.60
2022-12-31T16:55:24.592Z,13.30
2022-12-31T16:57:59.806Z,10.70
2022-12-31T17:00:29.255Z,10.80
2022-12-31T17:03:07.654Z,11.80
2022-12-31T17:05:54.370Z,11.90
2022-12-31T17:08:50.131Z,11.50
2022-12-31T17:11:25.432Z,10.70
2022-12-31T17:14:05.653Z,12.90
2022-12-31T17:16:41.235Z,10.10
2022-12-31T17:19:25.907Z,9.10
2022-12-31T17:21:54.356Z,8.90
2022-12-31T17:24:23.853Z,8.80
2022-12-31T17:26:52.931Z,7.60
2022-12-31T17:29:26.433Z,8.50
2022-12-31T17:32:01.283Z,7.70
2022-12-31T17:34:32.160Z,8.30
2022-12-31T17:37:14.357Z,10.30
2022-12-31T17:39:49.431Z,7.10
2022-12-31T17:42:37.340Z,9.40
2022-12-31T17:45:18.316Z,6.70
2022-12-31T17:47:52.611Z,6.70
2022-12-31T17:50:23.783Z,8.20
2022-12-31T17:53:11.241Z,8.90
2022-12-31T17:55:42.272Z,6.10
2022-12-31T17:58:22.469Z,7.20
2022-12-31T18:00:55.019Z,6.40
2022-12-31T18:03:23.525Z,5.40
2022-12-31T18:05:52.155Z,6.40
2022-12-31T18:08:20.654Z,5.60
2022-12-31T18:10:49.537Z,4.80
2022-12-31T18:13:22.579Z,4.60
2022-12-31T18:15:51.746Z,5.00
2022-12-31T18:18:28.754Z,4.70
2022-12-31T18:21:00.236Z,5.40
2022-12-31T18:23:34.602Z,5.10
2022-12-31T18:26:03.974Z,6.50
2022-12-31T18:28:32.405Z,5.20
2022-12-31T18:31:00.860Z,5.40
2022-12-31T18:33:29.348Z,5.10
2022-12-31T18:36:08.941Z,4.30
2022-12-31T18:38:39.429Z,4.30
2022-12-31T18:41:31.704Z,3.50
2022-12-31T18:44:00.041Z,3.80
2022-12-31T18:46:29.491Z,4.40
2022-12-31T18:48:57.924Z,4.10
2022-12-31T18:51:31.740Z,3.90
2022-12-31T18:54:02.100Z,3.60
2022-12-31T18:56:31.709Z,3.40
2022-12-31T18:59:00.423Z,2.90
2022-12-31T19:01:40.667Z,3.50
2022-12-31T19:04:19.944Z,3.20
2022-12-31T19:06:51.441Z,3.40
2022-12-31T19:09:43.899Z,2.80
2022-12-31T19:12:13.354Z,2.90
2022-12-31T19:19:38.043Z,3.20
2022-12-31T19:22:06.477Z,2.70
2022-12-31T19:24:34.828Z,3.80
2022-12-31T19:27:03.245Z,3.50
2022-12-31T19:29:31.956Z,3.50
2022-12-31T19:32:02.481Z,3.90
2022-12-31T19:34:31.304Z,4.10
2022-12-31T19:36:59.537Z,6.70
2022-12-31T19:39:27.957Z,16.00
2022-12-31T19:41:59.062Z,7.90
2022-12-31T19:44:27.949Z,6.70
2022-12-31T19:46:56.307Z,6.50
2022-12-31T19:49:24.636Z,5.70
2022-12-31T19:51:53.095Z,3.30
2022-12-31T19:54:21.384Z,3.10
2022-12-31T19:56:49.837Z,2.80
2022-12-31T19:59:18.150Z,3.00
2022-12-31T20:01:46.503Z,3.20
2022-12-31T20:04:14.930Z,3.40
2022-12-31T20:06:43.308Z,3.10
2022-12-31T20:09:12.733Z,3.40
2022-12-31T20:11:41.201Z,3.70
2022-12-31T20:14:09.536Z,4.00
2022-12-31T20:16:37.840Z,3.90
2022-12-31T20:19:06.301Z,3.90
2022-12-31T20:21:34.662Z,4.00
2022-12-31T20:24:03.080Z,5.00
2022-12-31T20:26:31.432Z,5.00
2022-12-31T20:28:59.731Z,4.50
2022-12-31T20:31:28.442Z,4.00
2022-12-31T20:33:56.759Z,3.40
2022-12-31T20:36:25.925Z,3.50
2022-12-31T20:38:54.225Z,3.70
2022-12-31T20:41:23.076Z,3.50
2022-12-31T20:43:52.041Z,3.40
2022-12-31T20:46:32.927Z,2.40
2022-12-31T20:49:02.913Z,2.80
2022-12-31T20:51:34.143Z,3.50
2022-12-31T20:54:08.797Z,4.80
2022-12-31T20:56:38.773Z,4.40
2022-12-31T20:59:09.940Z,3.30
2022-12-31T21:02:11.557Z,2.80
2022-12-31T21:04:27.847Z,3.00
2022-12-31T21:06:56.307Z,2.90
2022-12-31T21:09:25.091Z,3.30
2022-12-31T21:12:25.567Z,3.50
2022-12-31T21:14:53.853Z,10.60
2022-12-31T21:17:22.499Z,15.00
2022-12-31T21:19:51.423Z,15.60
2022-12-31T21:22:24.267Z,15.80
2022-12-31T21:24:52.959Z,13.10
2022-12-31T21:27:21.666Z,11.00
2022-12-31T21:30:17.154Z,7.20
2022-12-31T21:32:39.097Z,6.80
2022-12-31T21:35:41.294Z,6.90
2022-12-31T21:38:04.872Z,7.50
2022-12-31T21:40:33.529Z,6.90
2022-12-31T21:43:02.028Z,8.00
2022-12-31T21:45:30.417Z,8.60
2022-12-31T21:48:20.010Z,8.00
2022-12-31T21:50:50.966Z,8.20
2022-12-31T21:53:25.401Z,9.20
2022-12-31T21:56:08.638Z,9.90
2022-12-31T21:58:39.813Z,11.50
2022-12-31T22:01:50.714Z,14.40
2022-12-31T22:04:59.825Z,12.70
2022-12-31T22:07:07.555Z,20.70
2022-12-31T22:09:36.153Z,20.70
2022-12-31T22:12:04.789Z,26.80
2022-12-31T22:14:33.131Z,27.80
2022-12-31T22:17:01.938Z,27.70
2022-12-31T22:19:30.509Z,26.40
2022-12-31T22:21:59.047Z,24.90
2022-12-31T22:24:27.509Z,14.90
2022-12-31T22:26:57.056Z,12.00
2022-12-31T22:29:26.624Z,7.00
2022-12-31T22:32:00.891Z,6.30
2022-12-31T22:34:29.898Z,5.90
2022-12-31T22:37:09.017Z,6.30
2022-12-31T22:39:47.448Z,6.20
2022-12-31T22:42:15.903Z,6.50
2022-12-31T22:44:44.263Z,6.10
2022-12-31T22:47:12.941Z,6.50
2022-12-31T22:49:41.709Z,6.40
2022-12-31T22:52:10.287Z,6.60
2022-12-31T22:54:38.679Z,7.20
2022-12-31T22:57:07.102Z,7.30
2022-12-31T22:59:36.090Z,9.80
2022-12-31T23:02:04.404Z,99.40
2022-12-31T23:04:33.205Z,82.40
2022-12-31T23:07:01.891Z,41.80
2022-12-31T23:09:49.538Z,31.70
2022-12-31T23:12:18.271Z,65.90
2022-12-31T23:15:05.245Z,29.00
2022-12-31T23:17:52.273Z,14.40
2022-12-31T23:20:42.723Z,23.90
2022-12-31T23:23:16.569Z,16.50
2022-12-31T23:25:51.016Z,11.70
2022-12-31T23:28:24.449Z,10.80
2022-12-31T23:30:52.987Z,12.40
2022-12-31T23:33:23.953Z,12.20
2022-12-31T23:36:02.925Z,10.70
2022-12-31T23:38:31.515Z,8.30
2022-12-31T23:41:00.867Z,7.80
2022-12-31T23:43:29.519Z,7.50
2022-12-31T23:46:01.884Z,7.20
2022-12-31T23:48:30.421Z,7.10
2022-12-31T23:50:58.845Z,6.80
2022-12-31T23:53:27.067Z,9.80
2022-12-31T23:55:55.737Z,18.30
2022-12-31T23:58:25.297Z,31.50
